createdAt,value
2023-03-01T00:00:47.546Z,1.18
2023-03-01T00:01:49.858Z,1.18
2023-03-01T00:02:54.077Z,1.17
2023-03-01T00:03:56.593Z,1.10
2023-03-01T00:04:59.530Z,1.09
2023-03-01T00:06:02.474Z,1.10
2023-03-01T00:07:05.371Z,1.12
2023-03-01T00:08:07.318Z,1.15
2023-03-01T00:09:10.264Z,1.18
2023-03-01T00:10:12.557Z,1.15
2023-03-01T00:11:18.950Z,1.12
2023-03-01T00:12:20.950Z,1.09
2023-03-01T00:13:23.887Z,1.07
2023-03-01T00:14:25.844Z,1.03
2023-03-01T00:15:29.095Z,1.03
2023-03-01T00:16:34.630Z,1.03
2023-03-01T00:17:37.673Z,1.06
2023-03-01T00:18:39.673Z,1.07
2023-03-01T00:19:42.670Z,1.11
2023-03-01T00:20:50.978Z,1.13
2023-03-01T00:21:53.926Z,1.12
2023-03-01T00:22:55.886Z,1.08
2023-03-01T00:23:59.648Z,1.09
2023-03-01T00:25:02.381Z,1.07
2023-03-01T00:26:09.092Z,0.99
2023-03-01T00:27:12.789Z,0.99
2023-03-01T00:28:16.322Z,0.99
2023-03-01T00:29:18.265Z,1.01
2023-03-01T00:30:21.245Z,1.00
2023-03-01T00:31:27.535Z,0.98
2023-03-01T00:32:30.405Z,1.00
2023-03-01T00:33:32.304Z,0.97
2023-03-01T00:34:35.226Z,0.98
2023-03-01T00:35:37.258Z,0.99
2023-03-01T00:36:40.976Z,0.99
2023-03-01T00:37:43.331Z,1.01
2023-03-01T00:38:48.063Z,1.03
2023-03-01T00:39:50.502Z,1.07
2023-03-01T00:40:53.420Z,1.11
2023-03-01T00:41:57.354Z,1.11
2023-03-01T00:43:00.987Z,1.14
2023-03-01T00:44:04.321Z,1.16
2023-03-01T00:45:08.923Z,1.15
2023-03-01T00:46:15.028Z,1.11
2023-03-01T00:47:17.028Z,1.01
2023-03-01T00:48:19.990Z,0.96
2023-03-01T00:49:21.898Z,0.99
2023-03-01T00:50:25.975Z,1.01
2023-03-01T00:51:30.201Z,1.01
2023-03-01T00:52:33.211Z,1.03
2023-03-01T00:53:35.770Z,1.05
2023-03-01T00:54:38.774Z,1.07
2023-03-01T00:55:40.901Z,1.06
2023-03-01T00:56:43.882Z,1.08
2023-03-01T00:57:45.843Z,1.11
2023-03-01T00:58:50.837Z,1.12
2023-03-01T00:59:53.256Z,1.13
2023-03-01T01:00:56.184Z,1.14
2023-03-01T01:01:58.119Z,1.17
2023-03-01T01:03:01.026Z,1.15
2023-03-01T01:04:05.200Z,1.13
2023-03-01T01:05:09.145Z,1.12
2023-03-01T01:06:15.332Z,1.12
2023-03-01T01:07:18.386Z,1.12
2023-03-01T01:08:20.827Z,1.13
2023-03-01T01:09:23.749Z,1.13
2023-03-01T01:10:25.903Z,1.09
2023-03-01T01:11:31.011Z,1.07
2023-03-01T01:12:33.384Z,1.07
2023-03-01T01:13:36.265Z,1.07
2023-03-01T01:14:39.622Z,1.01
2023-03-01T01:15:42.712Z,0.95
2023-03-01T01:16:45.102Z,0.95
2023-03-01T01:17:48.023Z,0.94
2023-03-01T01:18:50.477Z,0.96
2023-03-01T01:19:53.418Z,0.95
2023-03-01T01:20:55.359Z,0.94
2023-03-01T01:21:58.455Z,0.97
2023-03-01T01:23:00.353Z,0.96
2023-03-01T01:24:05.923Z,0.96
2023-03-01T01:25:08.765Z,0.98
2023-03-01T01:26:14.695Z,0.97
2023-03-01T01:27:16.758Z,1.02
2023-03-01T01:28:19.909Z,1.04
2023-03-01T01:29:21.769Z,1.04
2023-03-01T01:30:27.023Z,1.08
2023-03-01T01:31:29.782Z,1.09
2023-03-01T01:32:33.568Z,1.11
2023-03-01T01:33:35.917Z,1.12
2023-03-01T01:34:38.875Z,1.13
2023-03-01T01:35:40.877Z,1.14
2023-03-01T01:36:44.020Z,1.15
2023-03-01T01:37:46.065Z,1.14
2023-03-01T01:38:49.455Z,1.11
2023-03-01T01:39:51.545Z,1.06
2023-03-01T01:40:54.522Z,1.05
2023-03-01T01:41:56.517Z,1.05
2023-03-01T01:42:59.366Z,1.08
2023-03-01T01:44:18.078Z,1.09
2023-03-01T01:45:32.678Z,1.07
2023-03-01T01:46:38.707Z,1.08
2023-03-01T01:47:41.672Z,1.11
2023-03-01T01:48:47.758Z,1.12
2023-03-01T01:49:53.612Z,1.12
2023-03-01T01:51:00.016Z,1.13
2023-03-01T01:52:10.699Z,1.11
2023-03-01T01:53:15.574Z,1.09
2023-03-01T01:54:24.218Z,1.11
2023-03-01T01:55:28.650Z,1.10
2023-03-01T01:56:32.321Z,1.09
2023-03-01T01:57:38.382Z,1.02
2023-03-01T01:58:43.354Z,1.01
2023-03-01T01:59:52.068Z,1.02
2023-03-01T02:00:56.566Z,1.03
2023-03-01T02:02:02.372Z,1.04
2023-03-01T02:03:08.982Z,1.06
2023-03-01T02:04:11.096Z,1.08
2023-03-01T02:05:19.709Z,1.12
2023-03-01T02:06:30.030Z,1.14
2023-03-01T02:07:33.305Z,1.14
2023-03-01T02:08:42.213Z,1.13
2023-03-01T02:09:48.641Z,1.13
2023-03-01T02:10:53.012Z,1.12
2023-03-01T02:11:56.410Z,1.05
2023-03-01T02:12:59.136Z,1.01
2023-03-01T02:14:02.214Z,0.99
2023-03-01T02:15:04.821Z,0.98
2023-03-01T02:16:11.452Z,0.98
2023-03-01T02:17:16.984Z,0.99
2023-03-01T02:18:22.564Z,1.00
2023-03-01T02:19:35.694Z,1.02
2023-03-01T02:20:50.972Z,1.05
2023-03-01T02:22:00.532Z,1.07
2023-03-01T02:23:03.932Z,1.09
2023-03-01T02:24:18.667Z,1.08
2023-03-01T02:25:36.187Z,1.09
2023-03-01T02:26:44.713Z,1.11
2023-03-01T02:27:55.993Z,1.14
2023-03-01T02:29:00.791Z,1.15
2023-03-01T02:30:03.223Z,1.15
2023-03-01T02:31:25.654Z,1.17
2023-03-01T02:32:28.661Z,1.18
2023-03-01T02:33:33.762Z,1.18
2023-03-01T02:34:38.023Z,1.20
2023-03-01T02:35:40.505Z,1.14
2023-03-01T02:36:48.193Z,1.12
2023-03-01T02:37:50.502Z,1.11
2023-03-01T02:38:57.101Z,1.10
2023-03-01T02:40:03.926Z,1.09
2023-03-01T02:41:09.173Z,1.09
2023-03-01T02:42:15.138Z,1.08
2023-03-01T02:43:18.527Z,1.07
2023-03-01T02:44:23.602Z,1.07
2023-03-01T02:45:27.358Z,1.03
2023-03-01T02:46:30.592Z,1.01
2023-03-01T02:47:32.849Z,0.97
2023-03-01T02:48:44.025Z,0.93
2023-03-01T02:49:45.885Z,0.92
2023-03-01T02:51:07.100Z,0.94
2023-03-01T02:52:30.821Z,0.99
2023-03-01T02:53:41.498Z,1.03
2023-03-01T02:54:49.093Z,1.06
2023-03-01T02:55:53.248Z,1.07
2023-03-01T02:56:57.036Z,1.11
2023-03-01T02:58:04.120Z,1.11
2023-03-01T02:59:07.706Z,1.01
2023-03-01T03:00:20.349Z,1.00
2023-03-01T03:01:22.951Z,1.00
2023-03-01T03:02:37.838Z,1.01
2023-03-01T03:03:48.932Z,1.03
2023-03-01T03:04:51.814Z,1.03
2023-03-01T03:05:54.171Z,1.03
2023-03-01T03:06:56.939Z,1.00
2023-03-01T03:08:02.273Z,0.99
2023-03-01T03:09:09.021Z,0.95
2023-03-01T03:10:13.326Z,0.95
2023-03-01T03:11:16.373Z,0.96
2023-03-01T03:12:18.372Z,0.97
2023-03-01T03:13:23.042Z,0.98
2023-03-01T03:14:25.451Z,1.00
2023-03-01T03:15:30.938Z,1.03
2023-03-01T03:16:33.256Z,1.01
2023-03-01T03:17:36.993Z,1.02
2023-03-01T03:18:39.016Z,0.99
2023-03-01T03:19:41.863Z,0.95
2023-03-01T03:20:45.070Z,0.92
2023-03-01T03:21:49.904Z,0.92
2023-03-01T03:22:53.676Z,0.88
2023-03-01T03:23:58.970Z,0.89
2023-03-01T03:25:02.345Z,0.88
2023-03-01T03:26:05.801Z,0.90
2023-03-01T03:27:08.295Z,0.91
2023-03-01T03:28:11.549Z,0.93
2023-03-01T03:29:13.404Z,0.95
2023-03-01T03:30:18.192Z,0.86
2023-03-01T03:31:21.576Z,0.88
2023-03-01T03:32:24.455Z,0.89
2023-03-01T03:33:26.391Z,0.93
2023-03-01T03:34:29.420Z,0.92
2023-03-01T03:35:33.660Z,0.94
2023-03-01T03:36:37.791Z,0.95
2023-03-01T03:37:59.491Z,0.96
2023-03-01T03:39:03.361Z,0.99
2023-03-01T03:40:16.203Z,0.98
2023-03-01T03:41:19.568Z,0.96
2023-03-01T03:42:22.567Z,0.95
2023-03-01T03:43:25.456Z,0.90
2023-03-01T03:44:27.380Z,0.88
2023-03-01T03:45:30.756Z,0.87
2023-03-01T03:46:34.258Z,0.82
2023-03-01T03:47:37.297Z,0.76
2023-03-01T03:48:41.131Z,0.68
2023-03-01T03:49:43.972Z,0.71
2023-03-01T03:50:50.280Z,0.61
2023-03-01T03:51:53.150Z,0.59
2023-03-01T03:52:54.975Z,0.52
2023-03-01T03:53:58.176Z,0.51
2023-03-01T03:55:00.108Z,0.51
2023-03-01T03:56:05.665Z,0.47
2023-03-01T03:57:08.522Z,0.45
2023-03-01T03:58:12.247Z,0.38
2023-03-01T03:59:14.262Z,0.38
2023-03-01T04:00:18.123Z,0.40
2023-03-01T04:01:20.393Z,0.44
2023-03-01T04:02:25.158Z,0.52
2023-03-01T04:03:28.240Z,0.60
2023-03-01T04:04:31.072Z,0.67
2023-03-01T04:05:32.950Z,0.73
2023-03-01T04:06:35.760Z,0.77
2023-03-01T04:07:38.777Z,0.80
2023-03-01T04:08:42.641Z,0.76
2023-03-01T04:09:44.837Z,0.77
2023-03-01T04:10:49.673Z,0.74
2023-03-01T04:11:51.543Z,0.71
2023-03-01T04:12:57.264Z,0.69
2023-03-01T04:14:01.183Z,0.66
2023-03-01T04:15:13.541Z,0.66
2023-03-01T04:16:17.227Z,0.66
2023-03-01T04:17:19.984Z,0.57
2023-03-01T04:18:26.924Z,0.49
2023-03-01T04:19:29.029Z,0.54
2023-03-01T04:20:35.684Z,0.56
2023-03-01T04:21:37.566Z,0.53
2023-03-01T04:22:41.207Z,0.57
2023-03-01T04:23:43.066Z,0.60
2023-03-01T04:24:46.428Z,0.60
2023-03-01T04:25:54.982Z,0.60
2023-03-01T04:26:57.911Z,0.57
2023-03-01T04:27:59.791Z,0.59
2023-03-01T04:29:03.367Z,0.66
2023-03-01T04:30:06.087Z,0.70
2023-03-01T04:31:14.914Z,0.74
2023-03-01T04:32:17.600Z,0.73
2023-03-01T04:33:20.849Z,0.75
2023-03-01T04:34:24.863Z,0.73
2023-03-01T04:35:27.764Z,0.71
2023-03-01T04:36:31.144Z,0.75
2023-03-01T04:37:35.751Z,0.78
2023-03-01T04:38:38.770Z,0.63
2023-03-01T04:39:46.442Z,0.65
2023-03-01T04:40:48.665Z,0.68
2023-03-01T04:41:51.499Z,0.69
2023-03-01T04:42:53.507Z,0.71
2023-03-01T04:43:56.411Z,0.74
2023-03-01T04:44:58.268Z,0.74
2023-03-01T04:46:04.544Z,0.74
2023-03-01T04:47:06.513Z,0.75
2023-03-01T04:48:09.450Z,0.78
2023-03-01T04:49:11.339Z,0.76
2023-03-01T04:50:17.907Z,0.69
2023-03-01T04:51:19.761Z,0.71
2023-03-01T04:52:22.582Z,0.72
2023-03-01T04:53:24.536Z,0.75
2023-03-01T04:54:27.387Z,0.75
2023-03-01T04:55:29.735Z,0.73
2023-03-01T04:56:32.982Z,0.65
2023-03-01T04:57:35.320Z,0.65
2023-03-01T04:58:38.415Z,0.60
2023-03-01T04:59:40.236Z,0.60
2023-03-01T05:00:43.169Z,0.63
2023-03-01T05:01:44.988Z,0.66
2023-03-01T05:02:54.146Z,0.70
2023-03-01T05:03:57.110Z,0.75
2023-03-01T05:04:58.995Z,0.78
2023-03-01T05:06:03.349Z,0.81
2023-03-01T05:07:05.194Z,0.79
2023-03-01T05:08:10.021Z,0.66
2023-03-01T05:09:12.368Z,0.63
2023-03-01T05:10:16.953Z,0.65
2023-03-01T05:11:19.752Z,0.67
2023-03-01T05:12:21.572Z,0.67
2023-03-01T05:13:24.466Z,0.65
2023-03-01T05:14:26.393Z,0.68
2023-03-01T05:15:31.528Z,0.66
2023-03-01T05:16:35.739Z,0.61
2023-03-01T05:17:39.070Z,0.59
2023-03-01T05:18:41.432Z,0.61
2023-03-01T05:19:44.306Z,0.62
2023-03-01T05:20:46.095Z,0.53
2023-03-01T05:22:06.301Z,0.34
2023-03-01T05:23:08.126Z,0.31
2023-03-01T05:24:12.637Z,0.29
2023-03-01T05:25:15.049Z,0.20
2023-03-01T05:26:28.694Z,0.24
2023-03-01T05:27:30.727Z,0.32
2023-03-01T05:28:34.180Z,0.39
2023-03-01T05:29:36.130Z,0.35
2023-03-01T05:30:40.846Z,0.37
2023-03-01T05:31:42.654Z,0.39
2023-03-01T05:32:47.817Z,0.40
2023-03-01T05:33:49.722Z,0.38
2023-03-01T05:34:53.158Z,0.38
2023-03-01T05:35:55.403Z,0.28
2023-03-01T05:37:00.191Z,0.19
2023-03-01T05:38:02.983Z,0.19
2023-03-01T05:39:05.896Z,0.23
2023-03-01T05:40:16.406Z,0.28
2023-03-01T05:41:19.526Z,0.28
2023-03-01T05:42:21.357Z,0.26
2023-03-01T05:43:24.186Z,0.22
2023-03-01T05:44:27.991Z,0.11
2023-03-01T05:45:31.044Z,0.06
2023-03-01T05:46:33.147Z,0.13
2023-03-01T05:47:36.502Z,0.14
2023-03-01T05:48:39.908Z,0.22
2023-03-01T05:49:41.758Z,0.27
2023-03-01T05:50:46.698Z,0.24
2023-03-01T05:51:50.337Z,0.23
2023-03-01T05:53:00.162Z,0.27
2023-03-01T05:54:03.260Z,0.30
2023-03-01T05:55:07.253Z,0.33
2023-03-01T05:56:10.092Z,0.41
2023-03-01T05:57:11.917Z,0.45
2023-03-01T05:58:16.766Z,0.49
2023-03-01T05:59:18.632Z,0.53
2023-03-01T06:00:24.123Z,0.49
2023-03-01T06:01:25.942Z,0.41
2023-03-01T06:02:30.255Z,0.36
2023-03-01T06:03:33.410Z,0.32
2023-03-01T06:04:35.322Z,0.27
2023-03-01T06:05:39.902Z,0.32
2023-03-01T06:06:42.776Z,0.39
2023-03-01T06:07:45.031Z,0.45
2023-03-01T06:08:49.305Z,0.52
2023-03-01T06:09:51.487Z,0.56
2023-03-01T06:10:54.518Z,0.61
2023-03-01T06:11:56.458Z,0.59
2023-03-01T06:12:59.339Z,0.60
2023-03-01T06:14:02.241Z,0.63
2023-03-01T06:15:06.863Z,0.66
2023-03-01T06:16:10.615Z,0.60
2023-03-01T06:17:12.482Z,0.63
2023-03-01T06:18:15.361Z,0.67
2023-03-01T06:19:17.537Z,0.70
2023-03-01T06:20:21.882Z,0.74
2023-03-01T06:21:23.719Z,0.78
2023-03-01T06:22:27.798Z,0.79
2023-03-01T06:23:30.048Z,0.77
2023-03-01T06:24:34.580Z,0.71
2023-03-01T06:25:36.685Z,0.71
2023-03-01T06:26:39.587Z,0.70
2023-03-01T06:27:42.937Z,0.72
2023-03-01T06:28:47.179Z,0.75
2023-03-01T06:29:49.834Z,0.78
2023-03-01T06:30:52.890Z,0.81
2023-03-01T06:31:55.754Z,0.84
2023-03-01T06:33:02.271Z,0.81
2023-03-01T06:34:05.309Z,0.75
2023-03-01T06:35:07.797Z,0.54
2023-03-01T06:36:11.624Z,0.42
2023-03-01T06:37:13.547Z,0.23
2023-03-01T06:38:18.383Z,0.28
2023-03-01T06:39:20.390Z,0.27
2023-03-01T06:40:24.952Z,0.31
2023-03-01T06:41:26.873Z,0.37
2023-03-01T06:42:29.800Z,0.42
2023-03-01T06:43:32.641Z,0.40
2023-03-01T06:44:34.671Z,0.33
2023-03-01T06:45:38.565Z,0.37
2023-03-01T06:46:40.588Z,0.35
2023-03-01T06:47:43.496Z,0.35
2023-03-01T06:48:45.287Z,0.30
2023-03-01T06:49:49.210Z,0.35
2023-03-01T06:50:51.142Z,0.34
2023-03-01T06:51:54.161Z,0.34
2023-03-01T06:52:56.819Z,0.40
2023-03-01T06:54:01.618Z,0.47
2023-03-01T06:55:05.450Z,0.48
2023-03-01T06:56:08.904Z,0.51
2023-03-01T06:57:11.775Z,0.52
2023-03-01T06:58:13.596Z,0.54
2023-03-01T06:59:16.659Z,0.56
2023-03-01T07:00:20.298Z,0.58
2023-03-01T07:01:23.141Z,0.62
2023-03-01T07:02:25.436Z,0.66
2023-03-01T07:03:28.339Z,0.59
2023-03-01T07:04:31.497Z,0.59
2023-03-01T07:05:35.535Z,0.61
2023-03-01T07:06:38.141Z,0.65
2023-03-01T07:07:40.968Z,0.67
2023-03-01T07:08:42.856Z,0.62
2023-03-01T07:09:45.810Z,0.61
2023-03-01T07:10:49.815Z,0.89
2023-03-01T07:11:54.403Z,0.94
2023-03-01T07:12:58.198Z,0.98
2023-03-01T07:14:01.068Z,0.98
2023-03-01T07:15:04.329Z,0.88
2023-03-01T07:16:08.043Z,0.78
2023-03-01T07:17:10.127Z,0.78
2023-03-01T07:18:12.990Z,0.78
2023-03-01T07:19:14.798Z,0.71
2023-03-01T07:20:17.914Z,0.71
2023-03-01T07:21:20.739Z,0.71
2023-03-01T07:22:22.602Z,0.70
2023-03-01T07:23:25.443Z,0.68
2023-03-01T07:24:27.591Z,0.67
2023-03-01T07:25:30.447Z,0.58
2023-03-01T07:26:33.376Z,0.52
2023-03-01T07:27:37.845Z,0.52
2023-03-01T07:28:40.706Z,0.53
2023-03-01T07:29:42.558Z,0.50
2023-03-01T07:30:45.752Z,0.51
2023-03-01T07:31:47.744Z,0.44
2023-03-01T07:32:50.854Z,0.39
2023-03-01T07:33:52.748Z,0.42
2023-03-01T07:34:55.547Z,0.37
2023-03-01T07:35:59.962Z,0.34
2023-03-01T07:37:03.819Z,0.38
2023-03-01T07:38:05.813Z,0.42
2023-03-01T07:39:08.662Z,0.48
2023-03-01T07:40:11.688Z,0.52
2023-03-01T07:41:15.177Z,0.55
2023-03-01T07:42:17.071Z,0.57
2023-03-01T07:43:21.585Z,0.61
2023-03-01T07:44:23.755Z,0.65
2023-03-01T07:45:27.063Z,0.69
2023-03-01T07:46:29.720Z,0.68
2023-03-01T07:47:33.048Z,0.70
2023-03-01T07:48:36.251Z,0.72
2023-03-01T07:49:39.248Z,0.73
2023-03-01T07:50:41.277Z,0.76
2023-03-01T07:51:45.382Z,0.69
2023-03-01T07:52:49.093Z,0.71
2023-03-01T07:53:51.132Z,0.68
2023-03-01T07:54:53.970Z,0.68
2023-03-01T07:56:03.406Z,0.68
2023-03-01T07:57:05.402Z,0.70
2023-03-01T07:58:08.221Z,0.59
2023-03-01T07:59:12.489Z,0.43
2023-03-01T08:00:16.020Z,0.47
2023-03-01T08:01:20.393Z,0.44
2023-03-01T08:02:24.749Z,0.33
2023-03-01T08:03:26.654Z,0.33
2023-03-01T08:04:29.654Z,0.38
2023-03-01T08:05:32.526Z,0.42
2023-03-01T08:06:38.650Z,0.45
2023-03-01T08:07:40.533Z,0.50
2023-03-01T08:08:43.928Z,0.54
2023-03-01T08:09:46.773Z,0.58
2023-03-01T08:10:48.689Z,0.62
2023-03-01T08:11:51.578Z,0.58
2023-03-01T08:12:55.085Z,0.59
2023-03-01T08:13:57.523Z,0.64
2023-03-01T08:15:02.198Z,0.67
2023-03-01T08:16:05.590Z,0.70
2023-03-01T08:17:08.792Z,0.73
2023-03-01T08:18:10.906Z,0.76
2023-03-01T08:19:14.262Z,0.78
2023-03-01T08:20:19.744Z,0.80
2023-03-01T08:21:22.912Z,0.82
2023-03-01T08:22:25.836Z,0.81
2023-03-01T08:23:28.666Z,0.81
2023-03-01T08:24:31.666Z,0.79
2023-03-01T08:25:33.588Z,0.78
2023-03-01T08:26:36.682Z,0.76
2023-03-01T08:27:38.648Z,0.75
2023-03-01T08:28:42.413Z,0.77
2023-03-01T08:29:45.537Z,0.77
2023-03-01T08:30:48.813Z,0.80
2023-03-01T08:31:51.904Z,0.79
2023-03-01T08:32:55.023Z,0.76
2023-03-01T08:34:00.495Z,0.78
2023-03-01T08:35:03.984Z,0.79
2023-03-01T08:36:07.933Z,0.81
2023-03-01T08:37:10.810Z,0.84
2023-03-01T08:38:13.630Z,0.86
2023-03-01T08:39:17.788Z,0.80
2023-03-01T08:40:20.829Z,0.77
2023-03-01T08:41:23.236Z,0.77
2023-03-01T08:42:26.188Z,0.71
2023-03-01T08:43:28.128Z,0.66
2023-03-01T08:44:31.090Z,0.70
2023-03-01T08:45:33.062Z,0.69
2023-03-01T08:46:39.454Z,0.69
2023-03-01T08:47:42.315Z,0.61
2023-03-01T08:48:44.262Z,0.59
2023-03-01T08:49:47.184Z,0.59
2023-03-01T08:50:49.049Z,0.60
2023-03-01T08:51:51.890Z,0.65
2023-03-01T08:52:54.706Z,0.64
2023-03-01T08:53:57.827Z,0.59
2023-03-01T08:55:02.359Z,0.48
2023-03-01T08:56:05.717Z,0.46
2023-03-01T08:57:10.022Z,0.49
2023-03-01T08:58:11.956Z,0.53
2023-03-01T08:59:22.365Z,0.55
2023-03-01T09:00:24.443Z,0.48
2023-03-01T09:01:27.552Z,0.47
2023-03-01T09:02:30.810Z,0.51
2023-03-01T09:03:33.742Z,0.56
2023-03-01T09:04:36.574Z,0.58
2023-03-01T09:05:38.524Z,0.58
2023-03-01T09:06:41.488Z,0.64
2023-03-01T09:07:43.415Z,0.67
2023-03-01T09:08:48.877Z,0.70
2023-03-01T09:09:54.329Z,0.76
2023-03-01T09:10:56.376Z,0.80
2023-03-01T09:11:59.223Z,0.84
2023-03-01T09:13:02.631Z,0.88
2023-03-01T09:14:07.734Z,0.90
2023-03-01T09:15:11.958Z,0.88
2023-03-01T09:16:17.657Z,0.88
2023-03-01T09:17:22.593Z,0.88
2023-03-01T09:18:27.024Z,0.90
2023-03-01T09:19:29.883Z,0.86
2023-03-01T09:20:32.882Z,0.84
2023-03-01T09:21:40.692Z,0.84
2023-03-01T09:22:43.089Z,0.77
2023-03-01T09:23:47.922Z,0.70
2023-03-01T09:24:50.812Z,0.67
2023-03-01T09:25:54.852Z,0.69
2023-03-01T09:26:58.698Z,0.68
2023-03-01T09:28:00.558Z,0.70
2023-03-01T09:29:04.365Z,0.73
2023-03-01T09:30:10.092Z,0.72
2023-03-01T09:31:13.873Z,0.62
2023-03-01T09:32:16.894Z,0.66
2023-03-01T09:33:19.975Z,0.69
2023-03-01T09:34:25.300Z,0.67
2023-03-01T09:35:27.191Z,0.61
2023-03-01T09:36:30.366Z,0.61
2023-03-01T09:37:33.240Z,0.63
2023-03-01T09:38:36.487Z,0.63
2023-03-01T09:39:38.399Z,0.67
2023-03-01T09:40:46.597Z,0.67
2023-03-01T09:41:58.287Z,0.70
2023-03-01T09:43:08.356Z,0.75
2023-03-01T09:44:18.359Z,0.79
2023-03-01T09:45:28.577Z,0.84
2023-03-01T09:46:36.549Z,0.84
2023-03-01T09:47:39.528Z,0.82
2023-03-01T09:48:46.475Z,0.75
2023-03-01T09:49:59.852Z,0.77
2023-03-01T09:51:08.003Z,0.80
2023-03-01T09:52:22.067Z,0.84
2023-03-01T09:53:33.840Z,0.87
2023-03-01T09:54:35.812Z,0.90
2023-03-01T09:55:45.172Z,0.95
2023-03-01T09:56:59.338Z,0.94
2023-03-01T09:58:14.679Z,0.89
2023-03-01T09:59:27.017Z,0.74
2023-03-01T10:00:38.065Z,0.62
2023-03-01T10:01:45.917Z,0.65
2023-03-01T10:02:53.523Z,0.69
2023-03-01T10:04:11.280Z,0.75
2023-03-01T10:05:33.509Z,0.79
2023-03-01T10:06:36.148Z,0.79
2023-03-01T10:07:47.059Z,0.79
2023-03-01T10:08:57.546Z,0.84
2023-03-01T10:10:02.271Z,0.89
2023-03-01T10:11:07.504Z,0.91
2023-03-01T10:12:13.492Z,0.91
2023-03-01T10:13:20.711Z,0.91
2023-03-01T10:14:35.312Z,0.92
2023-03-01T10:15:46.721Z,0.92
2023-03-01T10:16:55.520Z,0.95
2023-03-01T10:18:04.031Z,0.96
2023-03-01T10:19:08.730Z,0.98
2023-03-01T10:20:22.642Z,0.98
2023-03-01T10:21:25.598Z,0.91
2023-03-01T10:22:30.424Z,0.88
2023-03-01T10:23:36.549Z,0.85
2023-03-01T10:24:39.642Z,0.81
2023-03-01T10:25:52.223Z,0.84
2023-03-01T10:26:58.241Z,0.86
2023-03-01T10:28:07.570Z,0.92
2023-03-01T10:29:11.309Z,0.97
2023-03-01T10:30:20.930Z,1.00
2023-03-01T10:31:29.520Z,1.03
2023-03-01T10:32:33.323Z,1.03
2023-03-01T10:33:40.527Z,1.05
2023-03-01T10:34:43.744Z,1.07
2023-03-01T10:35:48.327Z,1.03
2023-03-01T10:36:53.576Z,1.04
2023-03-01T10:38:04.164Z,1.06
2023-03-01T10:39:14.497Z,1.05
2023-03-01T10:40:16.792Z,1.05
2023-03-01T10:41:20.432Z,1.05
2023-03-01T10:42:29.233Z,1.04
2023-03-01T10:43:45.600Z,1.08
2023-03-01T10:44:50.299Z,1.10
2023-03-01T10:45:53.974Z,1.13
2023-03-01T10:47:26.876Z,1.12
2023-03-01T10:48:29.778Z,1.13
2023-03-01T10:49:32.471Z,1.15
2023-03-01T10:50:35.857Z,1.19
2023-03-01T10:51:40.856Z,1.21
2023-03-01T10:52:43.866Z,1.21
2023-03-01T10:53:51.203Z,1.20
2023-03-01T10:54:58.033Z,1.19
2023-03-01T10:56:02.697Z,1.18
2023-03-01T10:57:07.344Z,1.17
2023-03-01T10:58:20.057Z,1.18
2023-03-01T10:59:28.505Z,1.19
2023-03-01T11:00:31.665Z,1.19
2023-03-01T11:01:36.915Z,1.19
2023-03-01T11:02:39.739Z,1.18
2023-03-01T11:03:42.807Z,1.21
2023-03-01T11:05:03.129Z,1.25
2023-03-01T11:06:23.484Z,1.28
2023-03-01T11:07:26.997Z,1.29
2023-03-01T11:08:41.913Z,1.33
2023-03-01T11:09:43.812Z,1.36
2023-03-01T11:10:46.701Z,1.38
2023-03-01T11:11:54.736Z,1.40
2023-03-01T11:13:09.410Z,1.41
2023-03-01T11:14:26.817Z,1.43
2023-03-01T11:15:30.299Z,1.45
2023-03-01T11:16:36.246Z,1.52
2023-03-01T11:17:53.222Z,1.52
2023-03-01T11:19:05.951Z,1.51
2023-03-01T11:20:24.184Z,1.51
2023-03-01T11:21:31.062Z,1.53
2023-03-01T11:22:38.504Z,1.54
2023-03-01T11:23:43.007Z,1.56
2023-03-01T11:24:49.382Z,1.57
2023-03-01T11:25:58.535Z,1.59
2023-03-01T11:27:04.486Z,1.60
2023-03-01T11:28:14.506Z,1.61
2023-03-01T11:29:29.684Z,1.61
2023-03-01T11:30:42.261Z,1.61
2023-03-01T11:31:57.264Z,1.64
2023-03-01T11:33:10.891Z,1.66
2023-03-01T11:34:20.568Z,1.65
2023-03-01T11:35:26.331Z,1.67
2023-03-01T11:36:36.447Z,1.66
2023-03-01T11:37:46.293Z,1.70
2023-03-01T11:38:48.601Z,1.73
2023-03-01T11:40:01.055Z,1.73
2023-03-01T11:41:09.772Z,1.77
2023-03-01T11:42:19.302Z,1.79
2023-03-01T11:43:28.540Z,1.83
2023-03-01T11:44:35.322Z,1.87
2023-03-01T11:45:49.613Z,1.93
2023-03-01T11:47:13.852Z,1.95
2023-03-01T11:48:48.842Z,1.93
2023-03-01T11:50:15.412Z,1.87
2023-03-01T11:51:26.764Z,1.86
2023-03-01T11:52:41.658Z,1.87
2023-03-01T11:54:03.500Z,1.90
2023-03-01T11:55:21.117Z,1.91
2023-03-01T11:56:33.869Z,1.92
2023-03-01T11:57:54.739Z,1.92
2023-03-01T11:59:09.186Z,1.92
2023-03-01T12:00:36.590Z,1.94
2023-03-01T12:01:53.785Z,1.97
2023-03-01T12:03:18.943Z,1.96
2023-03-01T12:04:56.107Z,1.95
2023-03-01T12:06:37.471Z,1.96
2023-03-01T12:07:48.468Z,1.96
2023-03-01T12:09:03.193Z,2.02
2023-03-01T12:10:22.958Z,2.10
2023-03-01T12:11:42.165Z,2.13
2023-03-01T12:13:00.686Z,2.19
2023-03-01T12:14:25.458Z,2.20
2023-03-01T12:15:40.392Z,2.18
2023-03-01T12:17:26.525Z,2.16
2023-03-01T12:19:13.973Z,2.17
2023-03-01T12:20:27.696Z,2.14
2023-03-01T12:21:44.479Z,2.16
2023-03-01T12:23:14.642Z,2.16
2023-03-01T12:24:53.342Z,2.17
2023-03-01T12:26:01.024Z,2.23
2023-03-01T12:27:20.604Z,2.27
2023-03-01T12:28:48.155Z,2.27
2023-03-01T12:30:00.572Z,2.25
2023-03-01T12:31:21.884Z,2.26
2023-03-01T12:32:45.975Z,2.26
2023-03-01T12:33:59.134Z,2.24
2023-03-01T12:35:22.311Z,2.24
2023-03-01T12:36:46.157Z,2.19
2023-03-01T12:37:58.756Z,2.22
2023-03-01T12:39:20.421Z,2.21
2023-03-01T12:40:34.962Z,2.25
2023-03-01T12:41:47.826Z,2.27
2023-03-01T12:43:04.778Z,2.29
2023-03-01T12:44:21.936Z,2.29
2023-03-01T12:45:52.993Z,2.26
2023-03-01T12:47:09.338Z,2.28
2023-03-01T12:48:26.279Z,2.28
2023-03-01T12:49:33.479Z,2.27
2023-03-01T12:50:43.413Z,2.29
2023-03-01T12:51:53.891Z,2.28
2023-03-01T12:52:58.620Z,2.29
2023-03-01T12:54:06.372Z,2.29
2023-03-01T12:55:23.792Z,2.33
2023-03-01T12:56:31.482Z,2.39
2023-03-01T12:57:39.077Z,2.39
2023-03-01T12:58:50.597Z,2.46
2023-03-01T13:00:10.607Z,2.45
2023-03-01T13:01:24.545Z,2.45
2023-03-01T13:02:38.773Z,2.48
2023-03-01T13:04:04.955Z,2.49
2023-03-01T13:05:26.110Z,2.47
2023-03-01T13:06:43.832Z,2.49
2023-03-01T13:07:57.434Z,2.53
2023-03-01T13:09:07.624Z,2.57
2023-03-01T13:10:22.055Z,2.67
2023-03-01T13:11:26.051Z,2.66
2023-03-01T13:13:03.858Z,2.58
2023-03-01T13:14:38.348Z,2.59
2023-03-01T13:15:43.704Z,2.57
2023-03-01T13:16:49.975Z,2.62
2023-03-01T13:17:53.838Z,2.64
2023-03-01T13:19:10.811Z,2.62
2023-03-01T13:20:18.847Z,2.60
2023-03-01T13:21:33.300Z,2.62
2023-03-01T13:22:38.090Z,2.63
2023-03-01T13:23:50.578Z,2.64
2023-03-01T13:25:03.495Z,2.69
2023-03-01T13:26:15.800Z,2.72
2023-03-01T13:27:30.364Z,2.64
2023-03-01T13:28:57.982Z,2.61
2023-03-01T13:30:04.478Z,2.59
2023-03-01T13:31:07.953Z,2.60
2023-03-01T13:32:24.927Z,2.65
2023-03-01T13:33:47.464Z,2.75
2023-03-01T13:34:53.649Z,2.77
2023-03-01T13:35:58.154Z,2.79
2023-03-01T13:37:11.359Z,2.75
2023-03-01T13:38:40.156Z,2.73
2023-03-01T13:39:44.698Z,2.72
2023-03-01T13:41:02.251Z,2.75
2023-03-01T13:42:04.442Z,2.67
2023-03-01T13:43:29.604Z,2.67
2023-03-01T13:44:37.032Z,2.66
2023-03-01T13:45:44.965Z,2.68
2023-03-01T13:46:49.377Z,2.68
2023-03-01T13:47:59.213Z,2.67
2023-03-01T13:49:03.383Z,2.66
2023-03-01T13:50:07.150Z,2.70
2023-03-01T13:51:12.826Z,2.73
2023-03-01T13:52:33.266Z,2.84
2023-03-01T13:53:38.827Z,2.82
2023-03-01T13:54:40.762Z,2.89
2023-03-01T13:55:46.909Z,2.85
2023-03-01T13:56:49.886Z,2.83
2023-03-01T13:57:55.200Z,2.86
2023-03-01T13:59:03.435Z,2.82
2023-03-01T14:00:08.538Z,2.77
2023-03-01T14:01:24.390Z,2.77
2023-03-01T14:02:26.402Z,2.79
2023-03-01T14:03:31.329Z,2.88
2023-03-01T14:04:36.761Z,2.94
2023-03-01T14:05:40.768Z,2.97
2023-03-01T14:06:43.623Z,2.99
2023-03-01T14:07:52.489Z,3.02
2023-03-01T14:09:06.763Z,3.05
2023-03-01T14:10:13.536Z,3.08
2023-03-01T14:11:45.679Z,3.07
2023-03-01T14:12:53.637Z,3.10
2023-03-01T14:14:13.372Z,3.07
2023-03-01T14:15:25.420Z,3.07
2023-03-01T14:16:37.913Z,3.05
2023-03-01T14:17:58.099Z,3.03
2023-03-01T14:19:16.092Z,3.00
2023-03-01T14:20:23.298Z,2.97
2023-03-01T14:21:26.687Z,2.99
2023-03-01T14:22:32.095Z,3.01
2023-03-01T14:23:36.324Z,3.02
2023-03-01T14:24:41.053Z,3.04
2023-03-01T14:25:49.602Z,3.13
2023-03-01T14:26:51.885Z,3.20
2023-03-01T14:28:06.150Z,3.20
2023-03-01T14:29:25.996Z,3.15
2023-03-01T14:30:35.053Z,3.14
2023-03-01T14:31:52.175Z,3.17
2023-03-01T14:32:57.729Z,3.25
2023-03-01T14:34:02.161Z,3.34
2023-03-01T14:35:05.557Z,3.38
2023-03-01T14:36:11.446Z,3.35
2023-03-01T14:37:22.108Z,3.31
2023-03-01T14:38:35.657Z,3.32
2023-03-01T14:39:38.179Z,3.28
2023-03-01T14:40:41.236Z,3.26
2023-03-01T14:41:43.310Z,3.24
2023-03-01T14:42:46.402Z,3.22
2023-03-01T14:43:53.407Z,3.22
2023-03-01T14:44:57.505Z,3.20